sensor_id;sensor_type;location;lat;lon;timestamp;temperature;humidity
52187;DHT22;38161;53.020;6.598;2023-04-03T00:02:18;1.60;99.90
52187;DHT22;38161;53.020;6.598;2023-04-03T00:04:43;1.60;99.90
52187;DHT22;38161;53.020;6.598;2023-04-03T00:07:10;1.70;99.90
52187;DHT22;38161;53.020;6.598;2023-04-03T00:09:35;1.60;99.90
52187;DHT22;38161;53.020;6.598;2023-04-03T00:12:01;1.80;99.90
52187;DHT22;38161;53.020;6.598;2023-04-03T00:14:27;1.60;99.90
52187;DHT22;38161;53.020;6.598;2023-04-03T00:16:53;1.60;99.90
52187;DHT22;38161;53.020;6.598;2023-04-03T00:19:19;1.50;99.90
52187;DHT22;38161;53.020;6.598;2023-04-03T00:21:45;1.50;99.90
52187;DHT22;38161;53.020;6.598;2023-04-03T00:24:11;1.50;99.90
52187;DHT22;38161;53.020;6.598;2023-04-03T00:26:36;1.90;99.90
52187;DHT22;38161;53.020;6.598;2023-04-03T00:29:02;1.50;99.90
52187;DHT22;38161;53.020;6.598;2023-04-03T00:31:28;1.40;99.90
52187;DHT22;38161;53.020;6.598;2023-04-03T00:33:54;1.40;99.90
52187;DHT22;38161;53.020;6.598;2023-04-03T00:36:20;1.30;99.90
52187;DHT22;38161;53.020;6.598;2023-04-03T00:38:45;1.30;99.90
52187;DHT22;38161;53.020;6.598;2023-04-03T00:41:11;1.30;99.90
52187;DHT22;38161;53.020;6.598;2023-04-03T00:43:37;1.30;99.90
52187;DHT22;38161;53.020;6.598;2023-04-03T00:46:03;1.20;99.90
52187;DHT22;38161;53.020;6.598;2023-04-03T00:48:36;1.20;99.90
52187;DHT22;38161;53.020;6.598;2023-04-03T00:51:04;1.20;99.90
52187;DHT22;38161;53.020;6.598;2023-04-03T00:53:37;1.20;99.90
52187;DHT22;38161;53.020;6.598;2023-04-03T00:56:07;1.10;99.90
52187;DHT22;38161;53.020;6.598;2023-04-03T00:58:41;1.10;99.90
52187;DHT22;38161;53.020;6.598;2023-04-03T01:01:12;1.10;99.90
52187;DHT22;38161;53.020;6.598;2023-04-03T01:03:40;1.10;99.90
52187;DHT22;38161;53.020;6.598;2023-04-03T01:06:06;1.00;99.90
52187;DHT22;38161;53.020;6.598;2023-04-03T01:08:32;1.00;99.90
52187;DHT22;38161;53.020;6.598;2023-04-03T01:10:58;1.00;99.90
52187;DHT22;38161;53.020;6.598;2023-04-03T01:13:29;0.90;99.90
52187;DHT22;38161;53.020;6.598;2023-04-03T01:15:56;0.90;99.90
52187;DHT22;38161;53.020;6.598;2023-04-03T01:18:22;0.90;99.90
52187;DHT22;38161;53.020;6.598;2023-04-03T01:21:02;0.80;99.90
52187;DHT22;38161;53.020;6.598;2023-04-03T01:26:16;0.80;99.90
52187;DHT22;38161;53.020;6.598;2023-04-03T01:28:41;0.70;99.90
52187;DHT22;38161;53.020;6.598;2023-04-03T01:31:27;0.60;99.90
52187;DHT22;38161;53.020;6.598;2023-04-03T01:33:54;0.60;99.90
52187;DHT22;38161;53.020;6.598;2023-04-03T01:36:24;0.60;99.90
52187;DHT22;38161;53.020;6.598;2023-04-03T01:38:52;0.50;99.90
52187;DHT22;38161;53.020;6.598;2023-04-03T01:41:18;0.50;99.90
52187;DHT22;38161;53.020;6.598;2023-04-03T01:43:44;0.70;99.90
52187;DHT22;38161;53.020;6.598;2023-04-03T01:46:10;0.40;99.90
52187;DHT22;38161;53.020;6.598;2023-04-03T01:48:36;0.60;99.90
52187;DHT22;38161;53.020;6.598;2023-04-03T01:51:02;0.40;99.90
52187;DHT22;38161;53.020;6.598;2023-04-03T01:53:28;0.30;99.90
52187;DHT22;38161;53.020;6.598;2023-04-03T01:55:53;0.30;99.90
52187;DHT22;38161;53.020;6.598;2023-04-03T01:58:19;0.20;99.90
52187;DHT22;38161;53.020;6.598;2023-04-03T02:00:45;0.20;99.90
52187;DHT22;38161;53.020;6.598;2023-04-03T02:03:11;0.60;99.90
52187;DHT22;38161;53.020;6.598;2023-04-03T02:05:37;0.20;99.90
52187;DHT22;38161;53.020;6.598;2023-04-03T02:08:03;0.10;99.90
52187;DHT22;38161;53.020;6.598;2023-04-03T02:10:29;0.10;99.90
52187;DHT22;38161;53.020;6.598;2023-04-03T02:12:54;0.10;99.90
52187;DHT22;38161;53.020;6.598;2023-04-03T02:15:21;0.00;99.90
52187;DHT22;38161;53.020;6.598;2023-04-03T02:17:46;0.00;99.90
52187;DHT22;38161;53.020;6.598;2023-04-03T02:20:12;0.00;99.90
52187;DHT22;38161;53.020;6.598;2023-04-03T02:22:38;-0.10;99.90
52187;DHT22;38161;53.020;6.598;2023-04-03T02:25:04;-0.10;99.90
52187;DHT22;38161;53.020;6.598;2023-04-03T02:27:30;-0.10;99.90
52187;DHT22;38161;53.020;6.598;2023-04-03T02:29:57;-0.10;99.90
52187;DHT22;38161;53.020;6.598;2023-04-03T02:32:22;0.00;99.90
52187;DHT22;38161;53.020;6.598;2023-04-03T02:34:48;-0.10;99.90
52187;DHT22;38161;53.020;6.598;2023-04-03T02:37:14;-0.10;99.90
52187;DHT22;38161;53.020;6.598;2023-04-03T02:39:40;-0.20;99.90
52187;DHT22;38161;53.020;6.598;2023-04-03T02:42:06;-0.10;99.90
52187;DHT22;38161;53.020;6.598;2023-04-03T02:44:33;-0.10;99.90
52187;DHT22;38161;53.020;6.598;2023-04-03T02:46:58;-0.20;99.90
52187;DHT22;38161;53.020;6.598;2023-04-03T02:49:24;0.00;99.90
52187;DHT22;38161;53.020;6.598;2023-04-03T02:51:50;-0.10;99.90
52187;DHT22;38161;53.020;6.598;2023-04-03T02:54:16;-0.10;99.90
52187;DHT22;38161;53.020;6.598;2023-04-03T02:56:42;-0.10;99.90
52187;DHT22;38161;53.020;6.598;2023-04-03T02:59:08;-0.20;99.90
52187;DHT22;38161;53.020;6.598;2023-04-03T03:01:34;-0.20;99.90
52187;DHT22;38161;53.020;6.598;2023-04-03T03:04:00;-0.30;99.90
52187;DHT22;38161;53.020;6.598;2023-04-03T03:06:26;-0.30;99.90
52187;DHT22;38161;53.020;6.598;2023-04-03T03:08:52;-0.40;99.90
52187;DHT22;38161;53.020;6.598;2023-04-03T03:11:18;-0.40;99.90
52187;DHT22;38161;53.020;6.598;2023-04-03T03:13:44;-0.40;99.90
52187;DHT22;38161;53.020;6.598;2023-04-03T03:16:10;-0.50;99.90
52187;DHT22;38161;53.020;6.598;2023-04-03T03:18:36;-0.40;99.90
52187;DHT22;38161;53.020;6.598;2023-04-03T03:21:02;-0.40;99.90
52187;DHT22;38161;53.020;6.598;2023-04-03T03:23:29;-0.40;99.90
52187;DHT22;38161;53.020;6.598;2023-04-03T03:26:07;-0.50;99.90
52187;DHT22;38161;53.020;6.598;2023-04-03T03:28:34;-0.40;99.90
52187;DHT22;38161;53.020;6.598;2023-04-03T03:31:02;-0.40;99.90
52187;DHT22;38161;53.020;6.598;2023-04-03T03:33:28;-0.40;99.90
52187;DHT22;38161;53.020;6.598;2023-04-03T03:35:54;-0.40;99.90
52187;DHT22;38161;53.020;6.598;2023-04-03T03:38:20;-0.30;99.90
52187;DHT22;38161;53.020;6.598;2023-04-03T03:40:51;-0.30;99.90
52187;DHT22;38161;53.020;6.598;2023-04-03T03:43:17;-0.30;99.90
52187;DHT22;38161;53.020;6.598;2023-04-03T03:45:44;-0.40;99.90
52187;DHT22;38161;53.020;6.598;2023-04-03T03:48:11;-0.50;99.90
52187;DHT22;38161;53.020;6.598;2023-04-03T03:50:37;-0.60;99.90
52187;DHT22;38161;53.020;6.598;2023-04-03T03:53:03;-0.60;99.90
52187;DHT22;38161;53.020;6.598;2023-04-03T03:55:28;-0.60;99.90
52187;DHT22;38161;53.020;6.598;2023-04-03T03:57:54;-0.70;99.90
52187;DHT22;38161;53.020;6.598;2023-04-03T04:00:20;-0.60;99.90
52187;DHT22;38161;53.020;6.598;2023-04-03T04:02:46;-0.60;99.90
52187;DHT22;38161;53.020;6.598;2023-04-03T04:05:12;-0.60;99.90
52187;DHT22;38161;53.020;6.598;2023-04-03T04:07:38;-0.60;99.90
52187;DHT22;38161;53.020;6.598;2023-04-03T04:10:04;-0.60;99.90
52187;DHT22;38161;53.020;6.598;2023-04-03T04:12:30;-0.70;99.90
52187;DHT22;38161;53.020;6.598;2023-04-03T04:14:56;-0.70;99.90
52187;DHT22;38161;53.020;6.598;2023-04-03T04:17:22;-0.70;99.90
52187;DHT22;38161;53.020;6.598;2023-04-03T04:19:47;-0.70;99.90
52187;DHT22;38161;53.020;6.598;2023-04-03T04:22:13;-0.80;99.90
52187;DHT22;38161;53.020;6.598;2023-04-03T04:24:39;-0.80;99.90
52187;DHT22;38161;53.020;6.598;2023-04-03T04:27:05;-0.80;99.90
52187;DHT22;38161;53.020;6.598;2023-04-03T04:29:30;-0.80;99.90
52187;DHT22;38161;53.020;6.598;2023-04-03T04:32:02;-0.80;99.90
52187;DHT22;38161;53.020;6.598;2023-04-03T04:34:28;-0.90;99.90
52187;DHT22;38161;53.020;6.598;2023-04-03T04:36:54;-0.90;99.90
52187;DHT22;38161;53.020;6.598;2023-04-03T04:39:19;-0.90;99.90
52187;DHT22;38161;53.020;6.598;2023-04-03T04:41:45;-0.80;99.90
52187;DHT22;38161;53.020;6.598;2023-04-03T04:44:11;-0.90;99.90
52187;DHT22;38161;53.020;6.598;2023-04-03T04:46:36;-1.00;99.90
52187;DHT22;38161;53.020;6.598;2023-04-03T04:49:02;-1.00;99.90
52187;DHT22;38161;53.020;6.598;2023-04-03T04:51:28;-1.00;99.90
52187;DHT22;38161;53.020;6.598;2023-04-03T04:53:54;-0.80;99.90
52187;DHT22;38161;53.020;6.598;2023-04-03T04:56:20;-1.00;99.90
52187;DHT22;38161;53.020;6.598;2023-04-03T04:58:46;-1.00;99.90
52187;DHT22;38161;53.020;6.598;2023-04-03T05:01:12;-0.90;99.90
52187;DHT22;38161;53.020;6.598;2023-04-03T05:03:38;-0.90;99.90
52187;DHT22;38161;53.020;6.598;2023-04-03T05:06:03;-0.90;99.90
52187;DHT22;38161;53.020;6.598;2023-04-03T05:08:30;-1.00;99.90
52187;DHT22;38161;53.020;6.598;2023-04-03T05:10:56;-1.00;99.90
52187;DHT22;38161;53.020;6.598;2023-04-03T05:13:22;-1.00;99.90
52187;DHT22;38161;53.020;6.598;2023-04-03T05:15:48;-1.10;99.90
52187;DHT22;38161;53.020;6.598;2023-04-03T05:18:14;-1.00;99.90
52187;DHT22;38161;53.020;6.598;2023-04-03T05:20:40;-1.10;99.90
52187;DHT22;38161;53.020;6.598;2023-04-03T05:23:05;-1.10;99.90
52187;DHT22;38161;53.020;6.598;2023-04-03T05:25:31;-1.10;99.90
52187;DHT22;38161;53.020;6.598;2023-04-03T05:27:57;-1.10;99.90
52187;DHT22;38161;53.020;6.598;2023-04-03T05:30:23;-1.00;99.90
52187;DHT22;38161;53.020;6.598;2023-04-03T05:32:49;-1.00;99.90
52187;DHT22;38161;53.020;6.598;2023-04-03T05:35:15;-1.00;99.90
52187;DHT22;38161;53.020;6.598;2023-04-03T05:37:40;-1.00;99.90
52187;DHT22;38161;53.020;6.598;2023-04-03T05:40:07;-0.70;99.90
52187;DHT22;38161;53.020;6.598;2023-04-03T05:42:33;-0.90;99.90
52187;DHT22;38161;53.020;6.598;2023-04-03T05:44:59;-0.80;99.90
52187;DHT22;38161;53.020;6.598;2023-04-03T05:47:25;-0.80;99.90
52187;DHT22;38161;53.020;6.598;2023-04-03T05:49:51;-0.80;99.90
52187;DHT22;38161;53.020;6.598;2023-04-03T05:54:47;-0.60;99.90
52187;DHT22;38161;53.020;6.598;2023-04-03T05:57:14;-0.60;99.90
52187;DHT22;38161;53.020;6.598;2023-04-03T05:59:42;-0.50;99.90
52187;DHT22;38161;53.020;6.598;2023-04-03T06:02:11;-0.40;99.90
52187;DHT22;38161;53.020;6.598;2023-04-03T06:04:38;-0.30;99.90
52187;DHT22;38161;53.020;6.598;2023-04-03T06:07:04;-0.20;99.90
52187;DHT22;38161;53.020;6.598;2023-04-03T06:09:30;-0.20;99.90
52187;DHT22;38161;53.020;6.598;2023-04-03T06:11:56;0.00;99.90
52187;DHT22;38161;53.020;6.598;2023-04-03T06:14:25;0.00;99.90
52187;DHT22;38161;53.020;6.598;2023-04-03T06:16:51;0.10;99.90
52187;DHT22;38161;53.020;6.598;2023-04-03T06:19:17;0.20;99.90
52187;DHT22;38161;53.020;6.598;2023-04-03T06:21:43;0.30;99.90
52187;DHT22;38161;53.020;6.598;2023-04-03T06:24:12;0.40;99.90
52187;DHT22;38161;53.020;6.598;2023-04-03T06:26:39;0.50;99.90
52187;DHT22;38161;53.020;6.598;2023-04-03T06:29:04;0.60;99.90
52187;DHT22;38161;53.020;6.598;2023-04-03T06:31:30;0.70;99.90
52187;DHT22;38161;53.020;6.598;2023-04-03T06:33:56;0.80;99.90
52187;DHT22;38161;53.020;6.598;2023-04-03T06:36:22;0.90;99.90
52187;DHT22;38161;53.020;6.598;2023-04-03T06:38:48;1.00;99.90
52187;DHT22;38161;53.020;6.598;2023-04-03T06:41:14;1.10;99.90
52187;DHT22;38161;53.020;6.598;2023-04-03T06:43:42;1.20;99.90
52187;DHT22;38161;53.020;6.598;2023-04-03T06:46:16;1.30;99.90
52187;DHT22;38161;53.020;6.598;2023-04-03T06:48:43;1.40;99.90
52187;DHT22;38161;53.020;6.598;2023-04-03T06:53:43;1.20;99.90
52187;DHT22;38161;53.020;6.598;2023-04-03T06:56:09;2.00;99.90
52187;DHT22;38161;53.020;6.598;2023-04-03T06:58:35;1.70;99.90
52187;DHT22;38161;53.020;6.598;2023-04-03T07:01:01;1.80;99.90
52187;DHT22;38161;53.020;6.598;2023-04-03T07:03:27;1.90;99.90
52187;DHT22;38161;53.020;6.598;2023-04-03T07:05:53;1.90;99.90
52187;DHT22;38161;53.020;6.598;2023-04-03T07:08:18;2.00;99.90
52187;DHT22;38161;53.020;6.598;2023-04-03T07:10:44;2.10;99.90
52187;DHT22;38161;53.020;6.598;2023-04-03T07:13:10;2.20;99.90
52187;DHT22;38161;53.020;6.598;2023-04-03T07:15:36;2.40;99.90
52187;DHT22;38161;53.020;6.598;2023-04-03T07:18:02;2.30;99.90
52187;DHT22;38161;53.020;6.598;2023-04-03T07:20:29;2.30;99.90
52187;DHT22;38161;53.020;6.598;2023-04-03T07:22:54;2.70;99.90
52187;DHT22;38161;53.020;6.598;2023-04-03T07:25:20;2.40;99.90
52187;DHT22;38161;53.020;6.598;2023-04-03T07:27:46;2.50;99.90
52187;DHT22;38161;53.020;6.598;2023-04-03T07:30:12;2.50;99.90
52187;DHT22;38161;53.020;6.598;2023-04-03T07:32:39;2.60;99.90
52187;DHT22;38161;53.020;6.598;2023-04-03T07:35:06;2.60;99.90
52187;DHT22;38161;53.020;6.598;2023-04-03T07:37:32;2.70;99.90
52187;DHT22;38161;53.020;6.598;2023-04-03T07:39:58;2.80;99.90
52187;DHT22;38161;53.020;6.598;2023-04-03T07:42:25;2.90;99.90
52187;DHT22;38161;53.020;6.598;2023-04-03T07:44:53;3.00;99.90
52187;DHT22;38161;53.020;6.598;2023-04-03T07:47:19;3.10;99.90
52187;DHT22;38161;53.020;6.598;2023-04-03T07:49:47;3.20;99.90
52187;DHT22;38161;53.020;6.598;2023-04-03T07:52:13;3.20;99.90
52187;DHT22;38161;53.020;6.598;2023-04-03T07:54:41;3.30;99.90
52187;DHT22;38161;53.020;6.598;2023-04-03T07:57:07;3.50;99.90
52187;DHT22;38161;53.020;6.598;2023-04-03T07:59:33;3.70;99.90
52187;DHT22;38161;53.020;6.598;2023-04-03T08:01:59;3.80;99.90
52187;DHT22;38161;53.020;6.598;2023-04-03T08:04:25;4.10;99.90
52187;DHT22;38161;53.020;6.598;2023-04-03T08:06:52;4.20;99.90
52187;DHT22;38161;53.020;6.598;2023-04-03T08:09:18;4.40;99.90
52187;DHT22;38161;53.020;6.598;2023-04-03T08:11:45;4.60;99.90
52187;DHT22;38161;53.020;6.598;2023-04-03T08:14:11;4.80;99.90
52187;DHT22;38161;53.020;6.598;2023-04-03T08:16:43;5.00;99.90
52187;DHT22;38161;53.020;6.598;2023-04-03T08:19:12;5.20;99.90
52187;DHT22;38161;53.020;6.598;2023-04-03T08:21:40;5.30;99.90
52187;DHT22;38161;53.020;6.598;2023-04-03T08:24:08;5.40;99.90
52187;DHT22;38161;53.020;6.598;2023-04-03T08:26:34;5.50;99.90
52187;DHT22;38161;53.020;6.598;2023-04-03T08:29:01;5.60;99.90
52187;DHT22;38161;53.020;6.598;2023-04-03T08:31:27;5.70;99.90
52187;DHT22;38161;53.020;6.598;2023-04-03T08:33:53;5.90;99.90
52187;DHT22;38161;53.020;6.598;2023-04-03T08:36:24;6.10;99.90
52187;DHT22;38161;53.020;6.598;2023-04-03T08:38:51;6.30;99.90
52187;DHT22;38161;53.020;6.598;2023-04-03T08:41:27;6.50;99.90
52187;DHT22;38161;53.020;6.598;2023-04-03T08:46:48;6.90;99.90
52187;DHT22;38161;53.020;6.598;2023-04-03T08:49:40;7.00;99.90
52187;DHT22;38161;53.020;6.598;2023-04-03T08:52:15;7.00;99.90
52187;DHT22;38161;53.020;6.598;2023-04-03T08:54:56;7.20;99.90
52187;DHT22;38161;53.020;6.598;2023-04-03T08:57:29;7.20;99.90
52187;DHT22;38161;53.020;6.598;2023-04-03T08:59:59;7.30;99.90
52187;DHT22;38161;53.020;6.598;2023-04-03T09:04:55;7.70;99.90
52187;DHT22;38161;53.020;6.598;2023-04-03T09:07:30;7.80;99.90
52187;DHT22;38161;53.020;6.598;2023-04-03T09:09:59;8.00;99.90
52187;DHT22;38161;53.020;6.598;2023-04-03T09:12:34;8.10;99.90
52187;DHT22;38161;53.020;6.598;2023-04-03T09:15:22;8.20;99.90
52187;DHT22;38161;53.020;6.598;2023-04-03T09:23:50;8.40;99.90
52187;DHT22;38161;53.020;6.598;2023-04-03T09:26:21;8.70;99.90
52187;DHT22;38161;53.020;6.598;2023-04-03T09:28:50;8.80;99.90
52187;DHT22;38161;53.020;6.598;2023-04-03T09:31:23;9.00;99.90
52187;DHT22;38161;53.020;6.598;2023-04-03T09:33:52;9.20;99.90
52187;DHT22;38161;53.020;6.598;2023-04-03T09:36:44;9.30;99.90
52187;DHT22;38161;53.020;6.598;2023-04-03T09:39:27;9.40;96.20
52187;DHT22;38161;53.020;6.598;2023-04-03T09:44:33;9.80;99.90
52187;DHT22;38161;53.020;6.598;2023-04-03T09:46:59;10.00;99.90
52187;DHT22;38161;53.020;6.598;2023-04-03T09:49:42;10.20;99.90
52187;DHT22;38161;53.020;6.598;2023-04-03T09:52:24;10.30;99.40
52187;DHT22;38161;53.020;6.598;2023-04-03T09:54:50;10.50;95.30
52187;DHT22;38161;53.020;6.598;2023-04-03T09:57:16;10.70;98.60
52187;DHT22;38161;53.020;6.598;2023-04-03T09:59:57;10.80;97.30
52187;DHT22;38161;53.020;6.598;2023-04-03T10:02:32;11.10;96.60
52187;DHT22;38161;53.020;6.598;2023-04-03T10:04:58;11.40;97.30
52187;DHT22;38161;53.020;6.598;2023-04-03T10:07:34;11.70;95.50
52187;DHT22;38161;53.020;6.598;2023-04-03T10:10:20;12.10;94.10
52187;DHT22;38161;53.020;6.598;2023-04-03T10:12:48;12.20;90.60
52187;DHT22;38161;53.020;6.598;2023-04-03T10:15:16;12.20;92.40
52187;DHT22;38161;53.020;6.598;2023-04-03T10:17:58;12.30;93.30
52187;DHT22;38161;53.020;6.598;2023-04-03T10:20:43;12.40;89.30
52187;DHT22;38161;53.020;6.598;2023-04-03T10:26:26;12.70;86.20
52187;DHT22;38161;53.020;6.598;2023-04-03T10:29:20;12.90;82.70
52187;DHT22;38161;53.020;6.598;2023-04-03T10:34:47;13.00;79.80
52187;DHT22;38161;53.020;6.598;2023-04-03T10:37:30;13.20;82.70
52187;DHT22;38161;53.020;6.598;2023-04-03T10:40:09;13.20;74.80
52187;DHT22;38161;53.020;6.598;2023-04-03T10:48:04;13.40;77.80
52187;DHT22;38161;53.020;6.598;2023-04-03T10:50:38;13.50;74.30
52187;DHT22;38161;53.020;6.598;2023-04-03T10:53:24;13.70;78.00
52187;DHT22;38161;53.020;6.598;2023-04-03T10:56:13;13.90;71.60
52187;DHT22;38161;53.020;6.598;2023-04-03T10:58:48;14.20;73.10
52187;DHT22;38161;53.020;6.598;2023-04-03T11:01:36;14.40;74.10
52187;DHT22;38161;53.020;6.598;2023-04-03T11:04:04;14.10;71.80
52187;DHT22;38161;53.020;6.598;2023-04-03T11:06:45;14.20;72.70
52187;DHT22;38161;53.020;6.598;2023-04-03T11:11:45;14.40;74.70
52187;DHT22;38161;53.020;6.598;2023-04-03T11:14:32;14.80;76.70
52187;DHT22;38161;53.020;6.598;2023-04-03T11:17:19;15.00;70.80
52187;DHT22;38161;53.020;6.598;2023-04-03T11:20:21;15.20;73.00
52187;DHT22;38161;53.020;6.598;2023-04-03T11:22:57;15.40;69.20
52187;DHT22;38161;53.020;6.598;2023-04-03T11:25:25;15.60;71.80
52187;DHT22;38161;53.020;6.598;2023-04-03T11:28:00;15.70;72.80
52187;DHT22;38161;53.020;6.598;2023-04-03T11:36:08;15.20;67.60
52187;DHT22;38161;53.020;6.598;2023-04-03T11:38:38;15.10;72.10
52187;DHT22;38161;53.020;6.598;2023-04-03T11:41:08;15.10;72.30
52187;DHT22;38161;53.020;6.598;2023-04-03T11:43:41;15.10;73.00
52187;DHT22;38161;53.020;6.598;2023-04-03T11:46:08;15.10;73.10
52187;DHT22;38161;53.020;6.598;2023-04-03T11:53:39;14.20;67.50
52187;DHT22;38161;53.020;6.598;2023-04-03T12:01:50;13.90;67.50
52187;DHT22;38161;53.020;6.598;2023-04-03T12:04:18;13.80;69.30
52187;DHT22;38161;53.020;6.598;2023-04-03T12:09:29;13.60;73.80
52187;DHT22;38161;53.020;6.598;2023-04-03T12:11:59;13.60;72.20
52187;DHT22;38161;53.020;6.598;2023-04-03T12:14:27;13.50;72.20
52187;DHT22;38161;53.020;6.598;2023-04-03T12:16:55;13.50;71.80
52187;DHT22;38161;53.020;6.598;2023-04-03T12:24:27;14.00;74.60
52187;DHT22;38161;53.020;6.598;2023-04-03T12:48:30;15.30;69.40
52187;DHT22;38161;53.020;6.598;2023-04-03T12:50:58;15.20;69.50
52187;DHT22;38161;53.020;6.598;2023-04-03T12:53:32;14.90;68.10
52187;DHT22;38161;53.020;6.598;2023-04-03T12:58:48;15.50;69.40
52187;DHT22;38161;53.020;6.598;2023-04-03T13:01:22;15.40;69.90
52187;DHT22;38161;53.020;6.598;2023-04-03T13:03:54;15.60;68.80
52187;DHT22;38161;53.020;6.598;2023-04-03T13:06:30;15.50;65.20
52187;DHT22;38161;53.020;6.598;2023-04-03T13:08:59;15.40;66.30
52187;DHT22;38161;53.020;6.598;2023-04-03T13:11:38;15.50;67.60
52187;DHT22;38161;53.020;6.598;2023-04-03T13:14:16;15.60;65.80
52187;DHT22;38161;53.020;6.598;2023-04-03T13:16:52;15.70;67.30
52187;DHT22;38161;53.020;6.598;2023-04-03T13:19:18;15.70;68.00
52187;DHT22;38161;53.020;6.598;2023-04-03T13:21:44;15.90;66.70
52187;DHT22;38161;53.020;6.598;2023-04-03T13:24:11;16.20;67.60
52187;DHT22;38161;53.020;6.598;2023-04-03T13:26:37;16.00;67.00
52187;DHT22;38161;53.020;6.598;2023-04-03T13:29:06;16.10;67.50
52187;DHT22;38161;53.020;6.598;2023-04-03T13:31:35;16.00;67.40
52187;DHT22;38161;53.020;6.598;2023-04-03T13:34:13;16.00;67.50
52187;DHT22;38161;53.020;6.598;2023-04-03T13:41:47;15.80;68.20
52187;DHT22;38161;53.020;6.598;2023-04-03T13:49:42;15.00;65.30
52187;DHT22;38161;53.020;6.598;2023-04-03T13:52:30;15.00;68.40
52187;DHT22;38161;53.020;6.598;2023-04-03T13:55:25;14.90;67.00
52187;DHT22;38161;53.020;6.598;2023-04-03T13:57:59;15.00;67.10
52187;DHT22;38161;53.020;6.598;2023-04-03T14:00:38;15.10;67.80
52187;DHT22;38161;53.020;6.598;2023-04-03T14:03:39;15.10;67.60
52187;DHT22;38161;53.020;6.598;2023-04-03T14:06:06;14.90;66.40
52187;DHT22;38161;53.020;6.598;2023-04-03T14:08:33;14.60;68.00
52187;DHT22;38161;53.020;6.598;2023-04-03T14:10:59;14.40;68.40
52187;DHT22;38161;53.020;6.598;2023-04-03T14:13:25;14.10;68.50
52187;DHT22;38161;53.020;6.598;2023-04-03T14:15:51;13.90;67.40
52187;DHT22;38161;53.020;6.598;2023-04-03T14:18:19;13.60;67.50
52187;DHT22;38161;53.020;6.598;2023-04-03T14:20:45;13.60;69.00
52187;DHT22;38161;53.020;6.598;2023-04-03T14:23:11;13.50;68.70
52187;DHT22;38161;53.020;6.598;2023-04-03T14:25:37;13.10;68.50
52187;DHT22;38161;53.020;6.598;2023-04-03T14:28:18;12.80;68.60
52187;DHT22;38161;53.020;6.598;2023-04-03T14:30:45;12.70;67.80
52187;DHT22;38161;53.020;6.598;2023-04-03T14:33:14;12.60;68.70
52187;DHT22;38161;53.020;6.598;2023-04-03T14:35:41;12.50;68.80
52187;DHT22;38161;53.020;6.598;2023-04-03T14:38:24;12.50;69.40
52187;DHT22;38161;53.020;6.598;2023-04-03T14:40:51;12.50;69.30
52187;DHT22;38161;53.020;6.598;2023-04-03T14:43:17;12.40;70.20
52187;DHT22;38161;53.020;6.598;2023-04-03T14:45:45;12.30;70.40
52187;DHT22;38161;53.020;6.598;2023-04-03T14:48:18;12.30;71.40
52187;DHT22;38161;53.020;6.598;2023-04-03T14:50:45;12.30;69.60
52187;DHT22;38161;53.020;6.598;2023-04-03T14:53:12;12.20;70.00
52187;DHT22;38161;53.020;6.598;2023-04-03T14:55:44;12.10;69.80
52187;DHT22;38161;53.020;6.598;2023-04-03T14:58:15;11.80;69.50
52187;DHT22;38161;53.020;6.598;2023-04-03T15:00:42;11.40;68.00
52187;DHT22;38161;53.020;6.598;2023-04-03T15:03:20;11.20;71.50
52187;DHT22;38161;53.020;6.598;2023-04-03T15:05:47;11.10;72.80
52187;DHT22;38161;53.020;6.598;2023-04-03T15:08:22;10.80;71.30
52187;DHT22;38161;53.020;6.598;2023-04-03T15:10:49;10.70;72.80
52187;DHT22;38161;53.020;6.598;2023-04-03T15:13:18;10.70;74.20
52187;DHT22;38161;53.020;6.598;2023-04-03T15:15:45;10.60;72.90
52187;DHT22;38161;53.020;6.598;2023-04-03T15:18:21;10.50;74.20
52187;DHT22;38161;53.020;6.598;2023-04-03T15:20:48;10.50;73.30
52187;DHT22;38161;53.020;6.598;2023-04-03T15:23:15;10.40;74.50
52187;DHT22;38161;53.020;6.598;2023-04-03T15:25:46;10.40;74.30
52187;DHT22;38161;53.020;6.598;2023-04-03T15:28:23;10.40;74.20
52187;DHT22;38161;53.020;6.598;2023-04-03T15:30:51;10.40;73.20
52187;DHT22;38161;53.020;6.598;2023-04-03T15:33:17;10.30;75.00
52187;DHT22;38161;53.020;6.598;2023-04-03T15:35:42;10.20;74.90
52187;DHT22;38161;53.020;6.598;2023-04-03T15:38:11;10.10;74.10
52187;DHT22;38161;53.020;6.598;2023-04-03T15:40:37;10.00;74.20
52187;DHT22;38161;53.020;6.598;2023-04-03T15:43:05;10.00;74.70
52187;DHT22;38161;53.020;6.598;2023-04-03T15:45:32;10.00;74.80
52187;DHT22;38161;53.020;6.598;2023-04-03T15:47:59;9.90;75.30
52187;DHT22;38161;53.020;6.598;2023-04-03T15:50:25;9.90;76.10
52187;DHT22;38161;53.020;6.598;2023-04-03T15:52:52;9.80;75.80
52187;DHT22;38161;53.020;6.598;2023-04-03T15:55:24;9.80;76.40
52187;DHT22;38161;53.020;6.598;2023-04-03T15:57:51;9.80;76.80
52187;DHT22;38161;53.020;6.598;2023-04-03T16:00:17;9.70;76.50
52187;DHT22;38161;53.020;6.598;2023-04-03T16:02:45;9.60;76.00
52187;DHT22;38161;53.020;6.598;2023-04-03T16:05:13;9.50;75.90
52187;DHT22;38161;53.020;6.598;2023-04-03T16:07:41;9.40;76.50
52187;DHT22;38161;53.020;6.598;2023-04-03T16:10:08;9.30;77.50
52187;DHT22;38161;53.020;6.598;2023-04-03T16:12:35;9.20;77.30
52187;DHT22;38161;53.020;6.598;2023-04-03T16:15:00;9.20;77.30
52187;DHT22;38161;53.020;6.598;2023-04-03T16:17:27;9.10;77.90
52187;DHT22;38161;53.020;6.598;2023-04-03T16:19:54;9.10;78.00
52187;DHT22;38161;53.020;6.598;2023-04-03T16:22:21;9.00;77.80
52187;DHT22;38161;53.020;6.598;2023-04-03T16:24:49;9.00;78.50
52187;DHT22;38161;53.020;6.598;2023-04-03T16:27:15;9.00;78.90
52187;DHT22;38161;53.020;6.598;2023-04-03T16:29:41;9.00;79.00
52187;DHT22;38161;53.020;6.598;2023-04-03T16:32:07;8.90;79.10
52187;DHT22;38161;53.020;6.598;2023-04-03T16:34:33;8.80;79.30
52187;DHT22;38161;53.020;6.598;2023-04-03T16:36:59;8.70;78.80
52187;DHT22;38161;53.020;6.598;2023-04-03T16:39:25;8.70;79.00
52187;DHT22;38161;53.020;6.598;2023-04-03T16:41:51;8.60;79.30
52187;DHT22;38161;53.020;6.598;2023-04-03T16:44:16;8.60;79.60
52187;DHT22;38161;53.020;6.598;2023-04-03T16:46:42;8.50;79.70
52187;DHT22;38161;53.020;6.598;2023-04-03T16:49:08;8.50;80.70
52187;DHT22;38161;53.020;6.598;2023-04-03T16:51:34;8.50;80.10
52187;DHT22;38161;53.020;6.598;2023-04-03T16:54:00;8.40;80.50
52187;DHT22;38161;53.020;6.598;2023-04-03T16:56:25;8.40;80.80
52187;DHT22;38161;53.020;6.598;2023-04-03T16:58:52;8.30;80.00
52187;DHT22;38161;53.020;6.598;2023-04-03T17:01:20;8.30;81.70
52187;DHT22;38161;53.020;6.598;2023-04-03T17:03:46;8.20;82.60
52187;DHT22;38161;53.020;6.598;2023-04-03T17:06:16;8.10;82.60
52187;DHT22;38161;53.020;6.598;2023-04-03T17:08:43;8.10;81.40
52187;DHT22;38161;53.020;6.598;2023-04-03T17:11:10;7.90;82.60
52187;DHT22;38161;53.020;6.598;2023-04-03T17:13:36;7.90;83.00
52187;DHT22;38161;53.020;6.598;2023-04-03T17:16:04;7.80;82.40
52187;DHT22;38161;53.020;6.598;2023-04-03T17:18:32;7.70;81.90
52187;DHT22;38161;53.020;6.598;2023-04-03T17:20:59;7.60;81.60
52187;DHT22;38161;53.020;6.598;2023-04-03T17:23:26;7.60;82.40